createdAt,value
2022-11-01T00:00:40.498Z,95.5
2022-11-01T00:04:40.414Z,95.18
2022-11-01T00:08:41.209Z,104.3
2022-11-01T00:12:40.503Z,115.43
2022-11-01T00:16:40.552Z,107.7
2022-11-01T00:20:40.526Z,103.55
2022-11-01T00:24:40.487Z,102.4
2022-11-01T00:28:40.577Z,108.87
2022-11-01T00:32:40.531Z,98.45
2022-11-01T00:36:40.466Z,102.55
2022-11-01T00:40:40.409Z,100.95
2022-11-01T00:44:40.510Z,100.75
2022-11-01T00:48:40.332Z,84.55
2022-11-01T00:52:40.465Z,98.95
2022-11-01T00:56:40.094Z,91.28
2022-11-01T01:00:40.819Z,96.3
2022-11-01T01:04:41.200Z,85.62
2022-11-01T01:08:40.435Z,87.22
2022-11-01T01:12:40.470Z,103.07
2022-11-01T01:16:43.019Z,96.6
2022-11-01T01:20:40.495Z,81
2022-11-01T01:24:40.516Z,95.72
2022-11-01T01:28:43.702Z,85.9
2022-11-01T01:32:40.511Z,89.75
2022-11-01T01:36:40.592Z,82.05
2022-11-01T01:40:40.463Z,82.53
2022-11-01T01:44:40.503Z,88.93
2022-11-01T01:48:40.590Z,91.15
2022-11-01T01:52:40.654Z,87.7
2022-11-01T01:56:40.706Z,94.18
2022-11-01T02:00:40.647Z,85.75
2022-11-01T02:04:40.822Z,93.85
2022-11-01T02:08:40.966Z,88.93
2022-11-01T02:12:40.644Z,89.07
2022-11-01T02:16:39.647Z,90.35
2022-11-01T02:20:40.709Z,92.28
2022-11-01T02:24:40.611Z,87.47
2022-11-01T02:28:40.901Z,89.32
2022-11-01T02:32:40.584Z,92.57
2022-11-01T02:36:40.921Z,99.32
2022-11-01T02:40:40.622Z,88.07
2022-11-01T02:44:40.336Z,94.57
2022-11-01T02:48:40.454Z,94.8
2022-11-01T02:52:40.539Z,95.82
2022-11-01T02:56:40.525Z,83.5
2022-11-01T03:00:40.555Z,90.15
2022-11-01T03:04:40.575Z,93.05
2022-11-01T03:08:40.757Z,100.8
2022-11-01T03:12:40.681Z,101.18
2022-11-01T03:16:40.656Z,100.57
2022-11-01T03:20:40.612Z,102.57
2022-11-01T03:24:40.308Z,102.2
2022-11-01T03:28:40.687Z,102.18
2022-11-01T03:32:40.501Z,91.05
2022-11-01T03:36:40.567Z,101.1
2022-11-01T03:40:40.566Z,108
2022-11-01T03:44:40.216Z,108.68
2022-11-01T03:48:41.040Z,108.35
2022-11-01T03:52:40.442Z,109.85
2022-11-01T03:56:40.544Z,108.57
2022-11-01T04:00:40.667Z,109.7
2022-11-01T04:04:40.465Z,112.2
2022-11-01T04:08:40.461Z,127.7
2022-11-01T04:12:40.484Z,130.87
2022-11-01T04:16:40.536Z,120.62
2022-11-01T04:20:40.453Z,125.53
2022-11-01T04:24:40.560Z,122.2
2022-11-01T04:28:39.495Z,137.95
2022-11-01T04:32:40.435Z,145.55
2022-11-01T04:36:40.301Z,119.15
2022-11-01T04:40:40.530Z,130.63
2022-11-01T04:44:40.322Z,171.57
2022-11-01T04:48:40.551Z,131.37
2022-11-01T04:52:40.789Z,156.82
2022-11-01T04:56:40.515Z,194.8
2022-11-01T05:00:40.646Z,136.48
2022-11-01T05:04:41.153Z,140.85
2022-11-01T05:08:39.699Z,153.7
2022-11-01T05:12:40.570Z,136.9
2022-11-01T05:16:40.545Z,195.38
2022-11-01T05:20:40.666Z,143.7
2022-11-01T05:28:40.469Z,155.68
2022-11-01T05:32:40.827Z,152.15
2022-11-01T05:36:40.382Z,163.37
2022-11-01T05:40:40.590Z,140.57
2022-11-01T05:44:41.070Z,156.98
2022-11-01T05:48:40.516Z,143.55
2022-11-01T05:52:40.478Z,133.25
2022-11-01T05:56:40.918Z,134.3
2022-11-01T06:00:39.746Z,128.55
2022-11-01T06:04:39.259Z,134.75
2022-11-01T06:08:40.427Z,137.75
2022-11-01T06:12:40.159Z,113.4
2022-11-01T06:16:40.384Z,131.85
2022-11-01T06:20:40.542Z,115.62
2022-11-01T06:24:40.655Z,127.93
2022-11-01T06:28:40.571Z,120.97
2022-11-01T06:32:40.372Z,112.35
2022-11-01T06:36:40.318Z,96.18
2022-11-01T06:40:41.073Z,96.72
2022-11-01T06:44:40.402Z,78.93
2022-11-01T06:48:40.476Z,90.82
2022-11-01T06:52:40.718Z,72.62
2022-11-01T06:56:40.399Z,70.47
2022-11-01T07:00:40.584Z,64.45
2022-11-01T07:04:40.695Z,56.1
2022-11-01T07:08:39.574Z,58.17
2022-11-01T07:12:40.463Z,57.47
2022-11-01T07:16:40.723Z,48.95
2022-11-01T07:20:40.720Z,49.53
2022-11-01T07:24:40.621Z,49.5
2022-11-01T07:28:40.446Z,45.9
2022-11-01T07:32:40.398Z,40.33
2022-11-01T07:36:40.339Z,41.97
2022-11-01T07:40:40.655Z,38.35
2022-11-01T07:44:40.541Z,33.78
2022-11-01T07:48:40.257Z,26.87
2022-11-01T07:52:40.762Z,25.7
2022-11-01T07:56:40.605Z,28.15
2022-11-01T08:00:40.892Z,22.6
2022-11-01T08:04:40.455Z,20.33
2022-11-01T08:08:40.602Z,16.37
2022-11-01T08:12:40.217Z,22
2022-11-01T08:16:40.305Z,21.17
2022-11-01T08:20:40.527Z,18.45
2022-11-01T08:24:40.338Z,19.85
2022-11-01T08:28:40.520Z,18.5
2022-11-01T08:32:40.464Z,15.68
2022-11-01T08:36:40.423Z,20.3
2022-11-01T08:40:40.784Z,13.07
2022-11-01T08:44:40.571Z,16.23
2022-11-01T08:48:40.538Z,22.6
2022-11-01T08:52:40.288Z,12.88
2022-11-01T08:56:40.469Z,23.67
2022-11-01T09:00:40.529Z,12.85
2022-11-01T09:04:40.289Z,30.65
2022-11-01T09:08:40.263Z,11.32
2022-11-01T09:16:40.381Z,14.3
2022-11-01T09:20:40.546Z,15.23
2022-11-01T09:24:40.772Z,12.88
2022-11-01T09:28:40.778Z,14.82
2022-11-01T09:32:40.524Z,13.13
2022-11-01T09:36:40.527Z,13.82
2022-11-01T09:40:40.623Z,13.5
2022-11-01T09:44:40.505Z,20.75
2022-11-01T09:48:40.306Z,13.8
2022-11-01T09:52:40.724Z,15.48
2022-11-01T09:56:40.695Z,15.38
2022-11-01T10:00:41.008Z,12.9
2022-11-01T10:04:40.586Z,13.57
2022-11-01T10:08:40.444Z,14.57
2022-11-01T10:12:40.372Z,21.2
2022-11-01T10:16:40.519Z,11.15
2022-11-01T10:20:40.578Z,17.5
2022-11-01T10:24:40.780Z,12.23
2022-11-01T10:28:40.472Z,17.83
2022-11-01T10:32:40.901Z,15.43
2022-11-01T10:36:40.550Z,20.35
2022-11-01T10:40:40.619Z,15.15
2022-11-01T10:44:40.467Z,14.05
2022-11-01T10:48:40.512Z,12.95
2022-11-01T10:52:40.548Z,14.3
2022-11-01T10:56:39.423Z,10.13
2022-11-01T11:00:41.580Z,12.6
2022-11-01T11:04:40.466Z,17.8
2022-11-01T11:08:40.751Z,11.6
2022-11-01T11:12:40.817Z,16.55
2022-11-01T11:16:40.729Z,13
2022-11-01T11:20:40.610Z,12.07
2022-11-01T11:24:40.536Z,17.15
2022-11-01T11:28:40.704Z,17.85
2022-11-01T11:32:40.503Z,15.15
2022-11-01T11:36:41.770Z,13.43
2022-11-01T11:40:40.523Z,19.23
2022-11-01T11:44:40.435Z,17.73
2022-11-01T11:48:40.463Z,14.63
2022-11-01T11:52:40.747Z,11.18
2022-11-01T11:56:40.600Z,14
2022-11-01T12:00:40.760Z,12.5
2022-11-01T12:04:40.386Z,10.9
2022-11-01T12:08:40.537Z,11
2022-11-01T12:12:40.638Z,14.9
2022-11-01T12:16:40.527Z,8.95
2022-11-01T12:20:40.614Z,12.52
2022-11-01T12:24:39.544Z,10.48
2022-11-01T12:28:40.763Z,7.85
2022-11-01T12:32:40.573Z,11.75
2022-11-01T12:36:40.465Z,11.32
2022-11-01T12:40:40.639Z,6.97
2022-11-01T12:44:40.467Z,8.4
2022-11-01T12:48:40.615Z,11.63
2022-11-01T12:52:41.019Z,12.4
2022-11-01T12:56:40.573Z,9.38
2022-11-01T13:00:40.606Z,13.6
2022-11-01T13:04:40.376Z,12.7
2022-11-01T13:08:40.540Z,14.95
2022-11-01T13:12:40.566Z,7.7
2022-11-01T13:16:40.525Z,8.77
2022-11-01T13:20:40.469Z,8.88
2022-11-01T13:24:40.508Z,11.12
2022-11-01T13:28:40.592Z,14.52
2022-11-01T13:32:40.367Z,8.35
2022-11-01T13:36:40.668Z,5.97
2022-11-01T13:40:40.510Z,8.05
2022-11-01T13:44:40.354Z,10.32
2022-11-01T13:48:40.621Z,12.6
2022-11-01T13:52:40.983Z,7.7
2022-11-01T13:56:40.484Z,7.72
2022-11-01T14:00:40.788Z,6.65
2022-11-01T14:04:40.533Z,6.35
2022-11-01T14:08:40.506Z,7
2022-11-01T14:12:44.807Z,6.18
2022-11-01T14:16:39.639Z,11.7
2022-11-01T14:20:40.779Z,11.63
2022-11-01T14:24:40.482Z,6.62
2022-11-01T14:28:40.459Z,3.97
2022-11-01T14:32:40.524Z,4.95
2022-11-01T14:36:39.264Z,8.05
2022-11-01T14:40:40.591Z,7.32
2022-11-01T14:44:40.614Z,13.65
2022-11-01T14:48:40.491Z,9.45
2022-11-01T14:52:40.591Z,6.62
2022-11-01T14:56:41.337Z,5.55
2022-11-01T15:00:40.708Z,5.9
2022-11-01T15:04:40.639Z,5.25
2022-11-01T15:08:40.647Z,5.95
2022-11-01T15:12:45.020Z,9.13
2022-11-01T15:16:41.270Z,3.67
2022-11-01T15:20:41.319Z,8
2022-11-01T15:24:41.297Z,7.03
2022-11-01T15:28:40.433Z,6.28
2022-11-01T15:32:40.807Z,3.33
2022-11-01T15:36:40.285Z,4.32
2022-11-01T15:40:39.499Z,6.12
2022-11-01T15:44:45.151Z,6.82
2022-11-01T15:48:39.584Z,8.8
2022-11-01T15:52:40.415Z,7.28
2022-11-01T15:56:40.063Z,6.7
2022-11-01T16:00:41.210Z,4.82
2022-11-01T16:04:40.519Z,6.87
2022-11-01T16:08:41.084Z,5
2022-11-01T16:12:40.477Z,6.53
2022-11-01T16:16:39.508Z,4.37
2022-11-01T16:20:40.451Z,10.57
2022-11-01T16:24:40.545Z,6.1
2022-11-01T16:28:40.247Z,4.1
2022-11-01T16:32:40.816Z,5.15
2022-11-01T16:36:40.500Z,5.47
2022-11-01T16:40:40.930Z,8.5
2022-11-01T16:44:40.454Z,7.1
2022-11-01T16:48:39.959Z,4.9
2022-11-01T16:52:40.789Z,4.03
2022-11-01T16:56:40.787Z,6.65
2022-11-01T17:00:40.801Z,9.27
2022-11-01T17:04:40.534Z,11.52
2022-11-01T17:08:40.517Z,14.15
2022-11-01T17:12:40.630Z,8.43
2022-11-01T17:16:40.412Z,7.97
2022-11-01T17:20:40.487Z,5.97
2022-11-01T17:24:40.568Z,8.05
2022-11-01T17:28:40.881Z,8.9
2022-11-01T17:32:39.893Z,10.9
2022-11-01T17:36:40.461Z,11
2022-11-01T17:40:40.532Z,9.32
2022-11-01T17:44:40.498Z,7.8
2022-11-01T17:48:40.460Z,10.4
2022-11-01T17:52:40.486Z,12.57
2022-11-01T17:56:40.421Z,12.1
2022-11-01T18:00:40.636Z,9.18
2022-11-01T18:04:40.459Z,13.93
2022-11-01T18:08:40.598Z,7.43
2022-11-01T18:12:40.612Z,9.43
2022-11-01T18:16:40.639Z,14
2022-11-01T18:20:40.584Z,13.38
2022-11-01T18:24:40.466Z,17.23
2022-11-01T18:28:40.496Z,12.77
2022-11-01T18:32:40.440Z,11.65
2022-11-01T18:36:40.269Z,12.18
2022-11-01T18:40:40.445Z,10.63
2022-11-01T18:44:40.796Z,17.23
2022-11-01T18:48:40.500Z,15.95
2022-11-01T18:52:40.835Z,12.7
2022-11-01T18:56:40.593Z,14.3
2022-11-01T19:00:40.816Z,18.27
2022-11-01T19:04:40.247Z,18.83
2022-11-01T19:08:40.377Z,21.58
2022-11-01T19:12:39.997Z,27.15
2022-11-01T19:16:40.647Z,18.5
2022-11-01T19:20:40.047Z,22.6
2022-11-01T19:24:40.682Z,22.08
2022-11-01T19:28:40.777Z,20.42
2022-11-01T19:32:40.493Z,25.12
2022-11-01T19:36:40.672Z,16.48
2022-11-01T19:40:40.550Z,22.33
2022-11-01T19:44:39.804Z,31.45
2022-11-01T19:48:41.149Z,25.02
2022-11-01T19:52:45.952Z,22.85
2022-11-01T19:56:40.620Z,27
2022-11-01T20:00:40.537Z,21.67
2022-11-01T20:04:40.998Z,20.65
2022-11-01T20:08:40.778Z,21.33
2022-11-01T20:12:44.540Z,25.8
2022-11-01T20:16:40.660Z,26.27
2022-11-01T20:20:40.521Z,25.1
2022-11-01T20:24:40.452Z,28.45
2022-11-01T20:28:40.729Z,22.92
2022-11-01T20:32:41.117Z,18.75
2022-11-01T20:36:40.477Z,23.12
2022-11-01T20:40:40.553Z,24.12
2022-11-01T20:44:41.007Z,28.42
2022-11-01T20:48:40.680Z,20.7
2022-11-01T20:52:40.643Z,25.2
2022-11-01T20:56:40.261Z,25.3
2022-11-01T21:00:40.461Z,26.9
2022-11-01T21:04:40.840Z,22.77
2022-11-01T21:08:40.682Z,20.02
2022-11-01T21:12:40.466Z,28.27
2022-11-01T21:16:40.297Z,25.92
2022-11-01T21:20:40.273Z,23.58
2022-11-01T21:24:40.532Z,29.25
2022-11-01T21:28:39.926Z,26.92
2022-11-01T21:32:42.515Z,27.75
2022-11-01T21:36:40.641Z,24.8
2022-11-01T21:40:40.574Z,28.65
2022-11-01T21:44:40.626Z,32.17
2022-11-01T21:48:40.548Z,35.47
2022-11-01T21:52:40.775Z,29.15
2022-11-01T21:56:40.268Z,26.73
2022-11-01T22:00:39.655Z,25.98
2022-11-01T22:04:40.894Z,25.8
2022-11-01T22:08:39.625Z,25.3
2022-11-01T22:12:40.562Z,25.42
2022-11-01T22:16:39.347Z,25.88
2022-11-01T22:20:40.412Z,29.8
2022-11-01T22:24:40.424Z,24.2
2022-11-01T22:28:40.488Z,23.9
2022-11-01T22:32:40.485Z,26
2022-11-01T22:36:40.392Z,20.85
2022-11-01T22:40:40.400Z,18.52
2022-11-01T22:44:40.597Z,23
2022-11-01T22:48:40.673Z,23.77
2022-11-01T22:52:40.534Z,25.23
2022-11-01T22:56:40.331Z,17.12
2022-11-01T23:00:40.244Z,17.6
2022-11-01T23:04:41.237Z,18.12
2022-11-01T23:08:40.431Z,13.43
2022-11-01T23:12:40.595Z,19.3
2022-11-01T23:16:40.321Z,19.5
2022-11-01T23:20:41.260Z,19.1
2022-11-01T23:24:40.851Z,14.52
2022-11-01T23:28:40.504Z,16.33
2022-11-01T23:32:40.611Z,14.23
2022-11-01T23:36:40.307Z,17
2022-11-01T23:40:40.564Z,14.48
2022-11-01T23:44:40.073Z,21.02
2022-11-01T23:48:44.184Z,10.43
2022-11-01T23:52:40.536Z,10.15
2022-11-01T23:56:40.436Z,14.38
